createdAt,value
2018-05-31T00:01:22.886Z,0.00
2018-05-31T00:02:22.772Z,0.00
2018-05-31T00:04:15.593Z,0.00
2018-05-31T00:05:15.510Z,0.00
2018-05-31T00:07:08.388Z,0.00
2018-05-31T00:08:08.280Z,0.00
2018-05-31T00:10:01.098Z,0.00
2018-05-31T00:11:00.998Z,0.00
2018-05-31T00:12:53.914Z,0.00
2018-05-31T00:13:53.750Z,0.00
2018-05-31T00:15:46.600Z,0.00
2018-05-31T00:16:46.508Z,0.00
2018-05-31T00:18:39.381Z,0.00
2018-05-31T00:19:39.305Z,0.00
2018-05-31T00:21:32.113Z,0.00
2018-05-31T00:22:32.007Z,0.00
2018-05-31T00:24:24.870Z,0.00
2018-05-31T00:25:24.756Z,0.00
2018-05-31T00:27:17.625Z,0.00
2018-05-31T00:28:17.532Z,0.00
2018-05-31T00:30:10.371Z,0.00
2018-05-31T00:31:10.247Z,0.00
2018-05-31T00:33:03.094Z,0.00
2018-05-31T00:34:03.027Z,0.00
2018-05-31T00:35:55.891Z,0.00
2018-05-31T00:36:55.747Z,0.00
2018-05-31T00:38:48.611Z,0.00
2018-05-31T00:39:48.501Z,0.00
2018-05-31T00:41:41.344Z,0.00
2018-05-31T00:42:41.260Z,0.00
2018-05-31T00:44:34.128Z,0.00
2018-05-31T00:45:34.014Z,0.00
2018-05-31T00:47:26.855Z,0.00
2018-05-31T00:48:26.751Z,0.00
2018-05-31T00:50:19.621Z,0.00
2018-05-31T00:51:19.500Z,0.00
2018-05-31T00:53:12.353Z,0.00
2018-05-31T00:54:12.244Z,0.00
2018-05-31T00:56:05.113Z,0.00
2018-05-31T00:57:04.998Z,0.00
2018-05-31T00:58:57.871Z,0.00
2018-05-31T00:59:57.745Z,0.00
2018-05-31T01:01:50.600Z,0.00
2018-05-31T01:02:50.513Z,0.00
2018-05-31T01:04:43.346Z,0.00
2018-05-31T01:05:43.267Z,0.00
2018-05-31T01:07:36.307Z,0.00
2018-05-31T01:08:36.215Z,0.00
2018-05-31T01:10:29.040Z,0.00
2018-05-31T01:11:28.951Z,0.00
2018-05-31T01:13:21.807Z,0.00
2018-05-31T01:14:21.697Z,0.00
2018-05-31T01:16:14.672Z,0.00
2018-05-31T01:17:14.582Z,0.00
2018-05-31T01:19:07.507Z,0.00
2018-05-31T01:20:07.432Z,0.00
2018-05-31T01:22:00.403Z,0.00
2018-05-31T01:23:00.273Z,0.00
2018-05-31T01:24:53.196Z,0.00
2018-05-31T01:25:53.101Z,0.00
2018-05-31T01:27:46.497Z,0.00
2018-05-31T01:28:46.381Z,0.00
2018-05-31T01:30:39.733Z,0.00
2018-05-31T01:31:39.230Z,0.00
2018-05-31T01:33:32.181Z,0.00
2018-05-31T01:34:32.092Z,0.00
2018-05-31T01:36:25.035Z,0.00
2018-05-31T01:37:24.921Z,0.00
2018-05-31T01:39:17.900Z,0.00
2018-05-31T01:40:17.777Z,0.00
2018-05-31T01:42:10.717Z,0.00
2018-05-31T01:43:10.630Z,0.00
2018-05-31T01:45:03.598Z,0.00
2018-05-31T01:46:03.474Z,0.00
2018-05-31T01:47:56.435Z,0.00
2018-05-31T01:48:56.337Z,0.00
2018-05-31T01:50:49.711Z,0.00
2018-05-31T01:51:49.602Z,0.00
2018-05-31T01:53:42.541Z,0.00
2018-05-31T01:54:42.455Z,0.00
2018-05-31T01:56:35.397Z,0.00
2018-05-31T01:57:35.294Z,0.00
2018-05-31T01:59:28.286Z,0.00
2018-05-31T02:00:28.147Z,0.00
2018-05-31T02:02:21.125Z,0.00
2018-05-31T02:03:21.010Z,0.00
2018-05-31T02:05:13.959Z,0.00
2018-05-31T02:06:13.849Z,0.00
2018-05-31T02:08:06.805Z,0.00
2018-05-31T02:09:06.715Z,0.00
2018-05-31T02:11:00.084Z,0.00
2018-05-31T02:11:59.563Z,0.00
2018-05-31T02:13:52.650Z,0.00
2018-05-31T02:14:52.414Z,0.00
2018-05-31T02:16:45.353Z,0.00
2018-05-31T02:17:45.276Z,0.00
2018-05-31T02:19:39.689Z,0.00
2018-05-31T02:20:39.562Z,0.00
2018-05-31T02:22:32.503Z,0.00
2018-05-31T02:23:32.419Z,0.00
2018-05-31T02:25:26.284Z,0.00
2018-05-31T02:26:25.863Z,0.00
2018-05-31T02:28:18.801Z,0.00
2018-05-31T02:29:18.710Z,0.00
2018-05-31T02:31:11.691Z,0.00
2018-05-31T02:32:11.568Z,4.00
2018-05-31T02:34:04.505Z,0.00
2018-05-31T02:35:04.417Z,0.00
2018-05-31T02:36:57.397Z,4.00
2018-05-31T02:37:57.286Z,4.00
2018-05-31T02:39:50.216Z,4.00
2018-05-31T02:40:50.124Z,4.00
2018-05-31T02:42:43.084Z,4.00
2018-05-31T02:43:42.987Z,8.00
2018-05-31T02:45:35.940Z,8.00
2018-05-31T02:46:35.827Z,8.00
2018-05-31T02:48:28.772Z,8.00
2018-05-31T02:49:28.700Z,12.00
2018-05-31T02:51:21.639Z,12.00
2018-05-31T02:52:21.531Z,12.00
2018-05-31T02:54:14.491Z,16.00
2018-05-31T02:55:14.400Z,20.00
2018-05-31T02:57:07.347Z,24.00
2018-05-31T02:58:07.239Z,28.00
2018-05-31T03:00:00.077Z,32.00
2018-05-31T03:00:59.986Z,32.00
2018-05-31T03:02:52.868Z,40.00
2018-05-31T03:03:52.736Z,44.00
2018-05-31T03:05:45.593Z,48.00
2018-05-31T03:06:45.493Z,56.00
2018-05-31T03:08:38.356Z,64.00
2018-05-31T03:09:38.252Z,68.00
2018-05-31T03:11:31.098Z,80.00
2018-05-31T03:12:30.999Z,84.00
2018-05-31T03:14:23.844Z,96.00
2018-05-31T03:15:23.740Z,104.00
2018-05-31T03:17:16.591Z,120.00
2018-05-31T03:18:16.486Z,124.00
2018-05-31T03:20:09.482Z,140.00
2018-05-31T03:21:09.252Z,152.00
2018-05-31T03:23:02.091Z,168.00
2018-05-31T03:24:01.982Z,176.00
2018-05-31T03:25:54.853Z,196.00
2018-05-31T03:26:54.749Z,204.00
2018-05-31T03:28:47.753Z,224.00
2018-05-31T03:29:47.514Z,236.00
2018-05-31T03:31:40.334Z,256.00
2018-05-31T03:32:40.240Z,268.00
2018-05-31T03:34:33.114Z,288.00
2018-05-31T03:35:33.007Z,300.00
2018-05-31T03:37:25.819Z,320.00
2018-05-31T03:38:25.722Z,332.00
2018-05-31T03:40:18.622Z,352.00
2018-05-31T03:41:18.495Z,368.00
2018-05-31T03:43:11.861Z,392.00
2018-05-31T03:44:11.223Z,400.00
2018-05-31T03:46:04.101Z,428.00
2018-05-31T03:47:03.995Z,440.00
2018-05-31T03:48:56.718Z,468.00
2018-05-31T03:49:56.623Z,476.00
2018-05-31T03:51:49.506Z,500.00
2018-05-31T03:52:49.388Z,512.00
2018-05-31T03:54:42.246Z,532.00
2018-05-31T03:55:42.125Z,544.00
2018-05-31T03:57:34.990Z,568.00
2018-05-31T03:58:34.873Z,580.00
2018-05-31T04:00:27.749Z,596.00
2018-05-31T04:01:27.655Z,608.00
2018-05-31T04:03:20.507Z,628.00
2018-05-31T04:04:20.395Z,636.00
2018-05-31T04:06:13.144Z,656.00
2018-05-31T04:07:13.026Z,664.00
2018-05-31T04:09:05.858Z,680.00
2018-05-31T04:10:05.764Z,692.00
2018-05-31T04:11:58.630Z,708.00
2018-05-31T04:12:58.521Z,712.00
2018-05-31T04:14:51.281Z,720.00
2018-05-31T04:15:51.187Z,744.00
2018-05-31T04:17:44.009Z,768.00
2018-05-31T04:18:43.917Z,780.00
2018-05-31T04:20:37.270Z,804.00
2018-05-31T04:21:36.663Z,816.00
2018-05-31T04:23:29.539Z,836.00
2018-05-31T04:24:29.443Z,844.00
2018-05-31T04:26:22.271Z,864.00
2018-05-31T04:27:22.178Z,872.00
2018-05-31T04:29:15.579Z,896.00
2018-05-31T04:30:15.427Z,904.00
2018-05-31T04:32:08.303Z,920.00
2018-05-31T04:33:08.183Z,928.00
2018-05-31T04:35:01.042Z,952.00
2018-05-31T04:36:01.024Z,956.00
2018-05-31T04:37:53.788Z,980.00
2018-05-31T04:38:53.671Z,984.00
2018-05-31T04:40:46.537Z,1008.00
2018-05-31T04:41:46.433Z,1016.00
2018-05-31T04:43:39.296Z,1032.00
2018-05-31T04:44:39.182Z,1040.00
2018-05-31T04:46:32.023Z,1064.00
2018-05-31T04:47:31.935Z,1076.00
2018-05-31T04:49:24.700Z,1092.00
2018-05-31T04:50:24.574Z,1104.00
2018-05-31T04:52:17.408Z,1124.00
2018-05-31T04:53:17.318Z,1136.00
2018-05-31T04:55:10.168Z,1148.00
2018-05-31T04:56:10.064Z,1156.00
2018-05-31T04:58:02.925Z,1180.00
2018-05-31T04:59:02.825Z,1208.00
2018-05-31T05:00:56.088Z,1248.00
2018-05-31T05:01:55.981Z,1268.00
2018-05-31T05:03:48.813Z,1312.00
2018-05-31T05:04:48.732Z,1324.00
2018-05-31T05:06:41.609Z,1336.00
2018-05-31T05:07:41.483Z,1344.00
2018-05-31T05:09:34.332Z,1352.00
2018-05-31T05:10:34.224Z,1364.00
2018-05-31T05:12:27.081Z,1372.00
2018-05-31T05:13:26.985Z,1372.00
2018-05-31T05:15:19.822Z,1376.00
2018-05-31T05:16:19.721Z,1376.00
2018-05-31T05:18:12.575Z,1376.00
2018-05-31T05:19:12.478Z,1352.00
2018-05-31T05:21:05.328Z,1328.00
2018-05-31T05:22:05.272Z,1328.00
2018-05-31T05:23:58.157Z,1244.00
2018-05-31T05:24:57.973Z,1204.00
2018-05-31T05:26:50.859Z,1144.00
2018-05-31T05:27:50.721Z,1160.00
2018-05-31T05:29:43.570Z,1220.00
2018-05-31T05:30:43.492Z,1248.00
2018-05-31T05:32:36.348Z,1328.00
2018-05-31T05:33:36.240Z,1372.00
2018-05-31T05:35:29.083Z,1460.00
2018-05-31T05:36:28.989Z,1488.00
2018-05-31T05:38:21.823Z,1564.00
2018-05-31T05:39:21.734Z,1588.00
2018-05-31T05:41:14.566Z,1612.00
2018-05-31T05:42:14.465Z,1616.00
2018-05-31T05:44:07.346Z,1648.00
2018-05-31T05:45:07.224Z,1660.00
2018-05-31T05:47:00.082Z,1672.00
2018-05-31T05:47:59.982Z,1684.00
2018-05-31T05:49:52.845Z,1704.00
2018-05-31T05:50:52.731Z,1708.00
2018-05-31T05:52:45.573Z,1708.00
2018-05-31T05:53:45.470Z,1712.00
2018-05-31T05:55:38.315Z,1716.00
2018-05-31T05:56:38.221Z,1732.00
2018-05-31T05:58:31.075Z,1752.00
2018-05-31T05:59:30.963Z,1768.00
2018-05-31T06:01:23.816Z,1772.00
2018-05-31T06:02:23.716Z,1776.00
2018-05-31T06:04:16.611Z,1776.00
2018-05-31T06:05:16.475Z,1776.00
2018-05-31T06:07:09.322Z,1792.00
2018-05-31T06:08:09.212Z,1800.00
2018-05-31T06:10:02.135Z,1820.00
2018-05-31T06:11:01.996Z,1828.00
2018-05-31T06:12:54.821Z,1836.00
2018-05-31T06:13:54.723Z,1836.00
2018-05-31T06:15:47.992Z,1848.00
2018-05-31T06:16:47.884Z,1848.00
2018-05-31T06:18:40.721Z,1832.00
2018-05-31T06:19:40.658Z,1804.00
2018-05-31T06:21:33.552Z,1920.00
2018-05-31T06:22:33.398Z,1944.00
2018-05-31T06:24:26.230Z,1960.00
2018-05-31T06:25:26.128Z,1968.00
2018-05-31T06:27:18.996Z,1980.00
2018-05-31T06:28:18.894Z,1992.00
2018-05-31T06:30:11.737Z,2004.00
2018-05-31T06:31:11.634Z,2012.00
2018-05-31T06:33:04.463Z,2024.00
2018-05-31T06:34:04.379Z,2036.00
2018-05-31T06:35:57.232Z,2052.00
2018-05-31T06:36:57.125Z,2060.00
2018-05-31T06:38:49.967Z,2076.00
2018-05-31T06:39:49.883Z,2088.00
2018-05-31T06:41:42.735Z,2100.00
2018-05-31T06:42:42.648Z,2112.00
2018-05-31T06:44:35.457Z,2124.00
2018-05-31T06:45:35.377Z,2132.00
2018-05-31T06:47:28.246Z,2156.00
2018-05-31T06:48:28.139Z,2176.00
2018-05-31T06:50:20.957Z,2192.00
2018-05-31T06:51:20.883Z,2208.00
2018-05-31T06:53:13.736Z,2228.00
2018-05-31T06:54:13.636Z,2240.00
2018-05-31T06:56:06.469Z,2260.00
2018-05-31T06:57:06.388Z,2272.00
2018-05-31T06:58:59.249Z,2296.00
2018-05-31T06:59:59.134Z,2308.00
2018-05-31T07:01:51.979Z,2320.00
2018-05-31T07:02:51.870Z,2328.00
2018-05-31T07:04:44.705Z,2352.00
2018-05-31T07:05:44.624Z,2368.00
2018-05-31T07:07:37.476Z,2404.00
2018-05-31T07:08:37.414Z,2424.00
2018-05-31T07:10:30.216Z,2464.00
2018-05-31T07:11:30.117Z,2468.00
2018-05-31T07:13:23.013Z,2488.00
2018-05-31T07:14:22.922Z,2504.00
2018-05-31T07:16:15.727Z,2532.00
2018-05-31T07:17:15.627Z,2548.00
2018-05-31T07:19:08.496Z,2580.00
2018-05-31T07:20:08.372Z,2600.00
2018-05-31T07:22:01.271Z,2616.00
2018-05-31T07:23:01.159Z,2632.00
2018-05-31T07:24:54.081Z,2652.00
2018-05-31T07:25:54.006Z,2668.00
2018-05-31T07:27:46.810Z,2684.00
2018-05-31T07:28:46.742Z,2696.00
2018-05-31T07:30:39.711Z,2700.00
2018-05-31T07:31:39.601Z,2712.00
2018-05-31T07:33:32.539Z,2716.00
2018-05-31T07:34:32.497Z,2744.00
2018-05-31T07:36:25.381Z,2772.00
2018-05-31T07:37:25.286Z,2748.00
2018-05-31T07:39:18.120Z,2760.00
2018-05-31T07:40:18.042Z,2812.00
2018-05-31T07:42:10.880Z,2820.00
2018-05-31T07:43:10.788Z,2844.00
2018-05-31T07:45:03.652Z,2816.00
2018-05-31T07:46:03.534Z,2884.00
2018-05-31T07:47:56.365Z,2916.00
2018-05-31T07:48:56.285Z,2952.00
2018-05-31T07:50:49.242Z,3004.00
2018-05-31T07:51:49.162Z,2984.00
2018-05-31T07:53:41.964Z,2996.00
2018-05-31T07:54:41.886Z,3000.00
2018-05-31T07:56:34.735Z,3000.00
2018-05-31T07:57:34.635Z,3036.00
2018-05-31T07:59:27.476Z,2932.00
2018-05-31T08:00:27.379Z,2940.00
2018-05-31T08:02:20.251Z,3052.00
2018-05-31T08:03:20.128Z,3064.00
2018-05-31T08:05:12.987Z,3028.00
2018-05-31T08:06:12.896Z,3060.00
2018-05-31T08:08:05.738Z,3064.00
2018-05-31T08:09:05.654Z,3084.00
2018-05-31T08:10:58.483Z,3088.00
2018-05-31T08:11:58.377Z,3096.00
2018-05-31T08:13:51.342Z,3168.00
2018-05-31T08:14:51.130Z,3188.00
2018-05-31T08:16:43.987Z,3208.00
2018-05-31T08:17:43.884Z,3216.00
2018-05-31T08:19:36.747Z,3228.00
2018-05-31T08:20:36.634Z,3240.00
2018-05-31T08:22:29.545Z,3272.00
2018-05-31T08:23:29.396Z,3284.00
2018-05-31T08:25:22.255Z,3324.00
2018-05-31T08:26:22.145Z,3280.00
2018-05-31T08:28:14.976Z,3308.00
2018-05-31T08:29:14.885Z,3288.00
2018-05-31T08:31:07.742Z,3304.00
2018-05-31T08:32:07.651Z,3316.00
2018-05-31T08:34:00.473Z,3332.00
2018-05-31T08:35:00.382Z,3328.00
2018-05-31T08:36:53.233Z,3336.00
2018-05-31T08:37:53.141Z,3352.00
2018-05-31T08:39:45.962Z,3408.00
2018-05-31T08:40:45.877Z,3424.00
2018-05-31T08:42:38.750Z,3444.00
2018-05-31T08:43:38.631Z,3468.00
2018-05-31T08:45:32.005Z,3480.00
2018-05-31T08:46:31.897Z,3476.00
2018-05-31T08:48:24.781Z,3508.00
2018-05-31T08:49:24.642Z,3512.00
2018-05-31T08:51:17.480Z,3496.00
2018-05-31T08:52:17.386Z,3504.00
2018-05-31T08:54:10.248Z,3520.00
2018-05-31T08:55:10.138Z,3516.00
2018-05-31T08:57:03.489Z,3536.00
2018-05-31T08:58:03.407Z,3552.00
2018-05-31T08:59:57.183Z,3580.00
2018-05-31T09:00:56.149Z,3592.00
2018-05-31T09:02:48.974Z,3596.00
2018-05-31T09:03:48.903Z,3600.00
2018-05-31T09:05:41.766Z,3620.00
2018-05-31T09:06:41.659Z,3636.00
2018-05-31T09:08:34.478Z,3656.00
2018-05-31T09:09:34.403Z,3624.00
2018-05-31T09:11:27.278Z,3656.00
2018-05-31T09:12:27.140Z,3688.00
2018-05-31T09:14:19.983Z,3680.00
2018-05-31T09:15:19.896Z,3676.00
2018-05-31T09:17:12.757Z,3668.00
2018-05-31T09:18:12.656Z,3664.00
2018-05-31T09:20:05.493Z,3732.00
2018-05-31T09:21:05.411Z,3740.00
2018-05-31T09:22:58.781Z,3764.00
2018-05-31T09:23:58.147Z,3788.00
2018-05-31T09:25:50.978Z,3804.00
2018-05-31T09:26:50.899Z,3820.00
2018-05-31T09:28:46.828Z,3836.00
2018-05-31T09:29:46.616Z,3892.00
2018-05-31T09:31:40.506Z,3892.00
2018-05-31T09:32:40.395Z,3900.00
2018-05-31T09:34:33.281Z,3908.00
2018-05-31T09:35:33.133Z,3880.00
2018-05-31T09:37:25.988Z,3884.00
2018-05-31T09:38:25.887Z,3920.00
2018-05-31T09:40:18.961Z,3916.00
2018-05-31T09:41:18.839Z,3956.00
2018-05-31T09:43:11.674Z,3932.00
2018-05-31T09:44:11.589Z,3912.00
2018-05-31T09:46:04.457Z,3940.00
2018-05-31T09:47:04.352Z,3928.00
2018-05-31T09:48:57.170Z,3952.00
2018-05-31T09:49:57.098Z,3952.00
2018-05-31T09:51:49.952Z,3972.00
2018-05-31T09:52:49.848Z,3980.00
2018-05-31T09:54:42.666Z,3952.00
2018-05-31T09:55:42.626Z,3984.00
2018-05-31T09:57:35.450Z,3980.00
2018-05-31T09:58:35.342Z,3956.00
2018-05-31T10:00:28.204Z,3964.00
2018-05-31T10:01:28.106Z,4012.00
2018-05-31T10:03:20.947Z,4000.00
2018-05-31T10:04:20.845Z,3940.00
2018-05-31T10:06:13.699Z,3808.00
2018-05-31T10:07:13.599Z,3872.00
2018-05-31T10:09:06.456Z,3884.00
2018-05-31T10:10:06.372Z,3872.00
2018-05-31T10:11:59.680Z,3884.00
2018-05-31T10:12:59.639Z,3948.00
2018-05-31T10:14:52.966Z,3832.00
2018-05-31T10:15:52.875Z,3880.00
2018-05-31T10:17:45.804Z,3648.00
2018-05-31T10:18:45.612Z,3508.00
2018-05-31T10:20:38.499Z,3304.00
2018-05-31T10:21:38.408Z,1716.00
2018-05-31T10:23:31.273Z,1140.00
2018-05-31T10:24:31.109Z,1020.00
2018-05-31T10:26:24.668Z,936.00
2018-05-31T10:27:24.574Z,920.00
2018-05-31T10:29:17.427Z,908.00
2018-05-31T10:30:17.337Z,908.00
2018-05-31T10:32:10.301Z,904.00
2018-05-31T10:33:10.167Z,900.00
2018-05-31T10:35:03.021Z,892.00
2018-05-31T10:36:03.098Z,888.00
2018-05-31T10:37:55.789Z,880.00
2018-05-31T10:38:55.677Z,880.00
2018-05-31T10:40:48.511Z,880.00
2018-05-31T10:41:48.424Z,884.00
2018-05-31T10:43:41.288Z,884.00
2018-05-31T10:44:41.175Z,884.00
2018-05-31T10:46:34.099Z,856.00
2018-05-31T10:47:33.937Z,864.00
2018-05-31T10:49:26.754Z,876.00
2018-05-31T10:50:26.683Z,880.00
2018-05-31T10:52:19.517Z,888.00
2018-05-31T10:53:19.426Z,892.00
2018-05-31T10:55:12.253Z,900.00
2018-05-31T10:56:12.182Z,908.00
2018-05-31T10:58:05.045Z,928.00
2018-05-31T10:59:04.929Z,940.00
2018-05-31T11:00:58.276Z,960.00
2018-05-31T11:01:57.677Z,976.00
2018-05-31T11:03:50.514Z,1028.00
2018-05-31T11:04:50.424Z,1052.00
2018-05-31T11:06:44.193Z,1088.00
2018-05-31T11:07:43.165Z,1116.00
2018-05-31T11:09:36.537Z,1164.00
2018-05-31T11:10:36.474Z,1192.00
2018-05-31T11:12:29.270Z,1240.00
2018-05-31T11:13:29.184Z,1264.00
2018-05-31T11:15:22.051Z,1300.00
2018-05-31T11:16:21.933Z,1324.00
2018-05-31T11:18:14.779Z,1356.00
2018-05-31T11:19:14.712Z,1368.00
2018-05-31T11:21:07.516Z,1396.00
2018-05-31T11:22:07.437Z,1396.00
2018-05-31T11:24:00.308Z,1392.00
2018-05-31T11:25:00.177Z,1388.00
2018-05-31T11:26:53.033Z,1380.00
2018-05-31T11:27:52.933Z,1376.00
2018-05-31T11:29:45.885Z,1376.00
2018-05-31T11:30:45.801Z,1376.00
2018-05-31T11:32:38.718Z,1364.00
2018-05-31T11:33:38.625Z,1360.00
2018-05-31T11:35:32.048Z,1340.00
2018-05-31T11:36:31.893Z,1340.00
2018-05-31T11:38:24.854Z,1352.00
2018-05-31T11:39:24.743Z,1364.00
2018-05-31T11:41:17.615Z,1368.00
2018-05-31T11:42:17.492Z,1372.00
2018-05-31T11:44:10.839Z,1368.00
2018-05-31T11:45:10.870Z,1356.00
2018-05-31T11:47:03.616Z,1340.00
2018-05-31T11:48:03.500Z,1340.00
2018-05-31T11:49:56.442Z,1344.00
2018-05-31T11:50:56.349Z,1352.00
2018-05-31T11:52:49.715Z,1392.00
2018-05-31T11:53:49.639Z,1404.00
2018-05-31T11:55:42.502Z,1440.00
2018-05-31T11:56:42.370Z,1464.00
2018-05-31T11:58:35.206Z,1500.00
2018-05-31T11:59:35.136Z,1512.00
2018-05-31T12:01:27.984Z,1540.00
2018-05-31T12:02:27.862Z,1576.00
2018-05-31T12:04:20.715Z,1640.00
2018-05-31T12:05:20.684Z,1668.00
2018-05-31T12:07:13.595Z,1732.00
2018-05-31T12:08:13.499Z,1772.00
2018-05-31T12:10:06.307Z,1872.00
2018-05-31T12:11:06.219Z,1912.00
2018-05-31T12:12:59.089Z,2028.00
2018-05-31T12:13:59.001Z,2092.00
2018-05-31T12:15:51.941Z,2240.00
2018-05-31T12:16:51.847Z,2340.00
2018-05-31T12:18:44.767Z,2516.00
2018-05-31T12:19:44.673Z,2524.00
2018-05-31T12:21:38.042Z,2508.00
2018-05-31T12:22:37.984Z,2512.00
2018-05-31T12:24:30.891Z,2580.00
2018-05-31T12:25:30.844Z,2620.00
2018-05-31T12:27:23.797Z,2688.00
2018-05-31T12:28:23.647Z,2732.00
2018-05-31T12:30:16.601Z,2864.00
2018-05-31T12:31:16.488Z,2936.00
2018-05-31T12:33:09.342Z,3064.00
2018-05-31T12:34:09.269Z,3160.00
2018-05-31T12:36:02.599Z,3360.00
2018-05-31T12:37:01.985Z,3340.00
2018-05-31T12:38:54.852Z,3568.00
2018-05-31T12:39:54.733Z,3732.00
2018-05-31T12:41:47.671Z,4100.00
2018-05-31T12:42:47.591Z,4244.00
2018-05-31T12:44:40.450Z,4600.00
2018-05-31T12:45:40.335Z,4644.00
2018-05-31T12:47:33.275Z,4992.00
2018-05-31T12:48:33.189Z,5048.00
2018-05-31T12:50:26.038Z,4924.00
2018-05-31T12:51:25.936Z,4720.00
2018-05-31T12:53:18.772Z,4840.00
2018-05-31T12:54:18.692Z,4832.00
2018-05-31T12:56:11.648Z,4968.00
2018-05-31T12:57:11.542Z,5008.00
2018-05-31T12:59:04.383Z,5060.00
2018-05-31T13:00:04.307Z,5056.00
2018-05-31T13:01:57.241Z,5004.00
2018-05-31T13:02:57.149Z,4988.00
2018-05-31T13:04:50.092Z,4956.00
2018-05-31T13:05:50.071Z,4936.00
2018-05-31T13:07:42.953Z,4880.00
2018-05-31T13:08:42.855Z,4844.00
2018-05-31T13:10:35.807Z,4812.00
2018-05-31T13:11:35.703Z,4752.00
2018-05-31T13:13:28.641Z,4816.00
2018-05-31T13:14:28.579Z,4800.00
2018-05-31T13:16:21.516Z,4812.00
2018-05-31T13:17:21.422Z,4804.00
2018-05-31T13:19:15.775Z,4760.00
2018-05-31T13:20:14.249Z,4676.00
2018-05-31T13:22:10.388Z,4572.00
2018-05-31T13:23:10.207Z,4700.00
2018-05-31T13:25:04.057Z,4616.00
2018-05-31T13:26:03.969Z,4548.00
2018-05-31T13:27:56.932Z,4356.00
2018-05-31T13:28:56.798Z,4296.00
2018-05-31T13:30:49.787Z,4060.00
2018-05-31T13:31:49.667Z,3828.00
2018-05-31T13:33:42.621Z,3376.00
2018-05-31T13:34:42.516Z,3460.00
2018-05-31T13:36:37.106Z,4076.00
2018-05-31T13:37:37.013Z,4080.00
2018-05-31T13:39:29.958Z,4396.00
2018-05-31T13:40:29.869Z,4620.00
2018-05-31T13:42:23.219Z,4808.00
2018-05-31T13:43:23.129Z,4820.00
2018-05-31T13:45:16.068Z,4824.00
2018-05-31T13:46:15.977Z,4824.00
2018-05-31T13:48:08.930Z,4820.00
2018-05-31T13:49:08.829Z,4816.00
2018-05-31T13:51:01.756Z,4788.00
2018-05-31T13:52:01.666Z,4780.00
2018-05-31T13:53:54.622Z,4768.00
2018-05-31T13:54:54.515Z,4756.00
2018-05-31T13:56:47.477Z,4744.00
2018-05-31T13:57:47.382Z,4752.00
2018-05-31T13:59:40.338Z,4788.00
2018-05-31T14:00:40.249Z,4772.00
2018-05-31T14:02:33.181Z,4784.00
2018-05-31T14:03:33.076Z,4808.00
2018-05-31T14:05:27.157Z,4776.00
2018-05-31T14:06:27.062Z,4764.00
2018-05-31T14:08:20.017Z,4764.00
2018-05-31T14:09:19.915Z,4716.00
2018-05-31T14:11:12.852Z,4908.00
2018-05-31T14:12:12.757Z,4924.00
2018-05-31T14:14:05.745Z,4924.00
2018-05-31T14:15:05.638Z,4968.00
2018-05-31T14:16:58.571Z,5020.00
2018-05-31T14:17:58.477Z,5024.00
2018-05-31T14:19:51.436Z,5068.00
2018-05-31T14:20:51.333Z,5128.00
2018-05-31T14:22:44.266Z,5216.00
2018-05-31T14:23:44.171Z,5236.00
2018-05-31T14:25:37.142Z,5260.00
2018-05-31T14:26:37.031Z,5312.00
2018-05-31T14:28:30.389Z,5348.00
2018-05-31T14:29:29.886Z,5372.00
2018-05-31T14:31:22.844Z,5360.00
2018-05-31T14:32:22.720Z,5340.00
2018-05-31T14:34:15.676Z,5368.00
2018-05-31T14:35:15.575Z,5388.00
2018-05-31T14:37:08.528Z,5432.00
2018-05-31T14:38:08.441Z,5444.00
2018-05-31T14:40:01.373Z,5484.00
2018-05-31T14:41:01.283Z,5516.00
2018-05-31T14:42:54.754Z,5600.00
2018-05-31T14:43:54.653Z,5620.00
2018-05-31T14:45:47.579Z,5752.00
2018-05-31T14:46:47.511Z,5804.00
2018-05-31T14:48:40.449Z,5864.00
2018-05-31T14:49:40.351Z,5880.00
2018-05-31T14:51:33.310Z,5912.00
2018-05-31T14:52:33.200Z,5948.00
2018-05-31T14:54:26.171Z,6032.00
2018-05-31T14:55:26.059Z,6048.00
2018-05-31T14:57:19.012Z,5392.00
2018-05-31T14:58:18.909Z,6056.00
2018-05-31T15:00:11.859Z,6232.00
2018-05-31T15:01:11.752Z,6220.00
2018-05-31T15:03:04.704Z,6316.00
2018-05-31T15:04:04.636Z,6356.00
2018-05-31T15:05:57.537Z,6372.00
2018-05-31T15:06:57.462Z,6316.00
2018-05-31T15:08:50.442Z,5888.00
2018-05-31T15:09:50.311Z,5972.00
2018-05-31T15:11:43.248Z,6056.00
2018-05-31T15:12:43.175Z,5908.00
2018-05-31T15:14:36.225Z,5740.00
2018-05-31T15:15:36.141Z,5384.00
2018-05-31T15:17:29.057Z,5088.00
2018-05-31T15:18:28.975Z,4876.00
2018-05-31T15:20:21.979Z,4264.00
2018-05-31T15:21:21.835Z,3868.00
2018-05-31T15:23:15.283Z,3708.00
2018-05-31T15:24:15.279Z,3644.00
2018-05-31T15:26:08.179Z,3396.00
2018-05-31T15:27:08.043Z,3284.00
2018-05-31T15:29:00.978Z,3140.00
2018-05-31T15:30:00.889Z,3100.00
2018-05-31T15:31:53.826Z,3036.00
2018-05-31T15:32:53.741Z,2964.00
2018-05-31T15:34:46.704Z,2708.00
2018-05-31T15:35:46.598Z,2552.00
2018-05-31T15:37:39.535Z,2332.00
2018-05-31T15:38:39.475Z,2336.00
2018-05-31T15:40:32.827Z,2636.00
2018-05-31T15:41:32.299Z,2840.00
2018-05-31T15:43:25.286Z,3136.00
2018-05-31T15:44:25.229Z,3028.00
2018-05-31T15:46:18.098Z,2872.00
2018-05-31T15:47:18.007Z,2788.00
2018-05-31T15:49:10.948Z,2632.00
2018-05-31T15:50:10.858Z,2564.00
2018-05-31T15:52:03.812Z,2516.00
2018-05-31T15:53:03.722Z,2536.00
2018-05-31T15:54:56.644Z,2608.00
2018-05-31T15:55:56.575Z,2632.00
2018-05-31T15:57:49.505Z,2576.00
2018-05-31T15:58:49.413Z,2516.00
2018-05-31T16:00:42.360Z,2364.00
2018-05-31T16:01:42.275Z,2272.00
2018-05-31T16:03:35.222Z,2028.00
2018-05-31T16:04:35.113Z,2020.00
2018-05-31T16:06:28.069Z,2184.00
2018-05-31T16:07:27.970Z,2252.00
2018-05-31T16:09:20.914Z,2428.00
2018-05-31T16:10:20.818Z,2512.00
2018-05-31T16:12:13.771Z,2604.00
2018-05-31T16:13:13.669Z,2660.00
2018-05-31T16:15:06.599Z,2776.00
2018-05-31T16:16:06.559Z,2812.00
2018-05-31T16:17:59.573Z,2888.00
2018-05-31T16:18:59.377Z,2960.00
2018-05-31T16:20:52.302Z,3136.00
2018-05-31T16:21:52.223Z,3220.00
2018-05-31T16:23:45.227Z,3328.00
2018-05-31T16:24:45.104Z,3340.00
2018-05-31T16:26:38.005Z,3352.00
2018-05-31T16:27:37.860Z,3356.00
2018-05-31T16:29:30.686Z,3352.00
2018-05-31T16:30:30.580Z,3344.00
2018-05-31T16:32:23.551Z,3340.00
2018-05-31T16:33:23.427Z,3328.00
2018-05-31T16:35:16.308Z,3284.00
2018-05-31T16:36:16.187Z,3264.00
2018-05-31T16:38:09.055Z,3204.00
2018-05-31T16:39:08.932Z,3180.00
2018-05-31T16:41:01.812Z,3120.00
2018-05-31T16:42:01.765Z,3048.00
2018-05-31T16:43:55.221Z,2772.00
2018-05-31T16:44:54.435Z,2616.00
2018-05-31T16:46:47.763Z,2476.00
2018-05-31T16:47:47.683Z,2396.00
2018-05-31T16:49:40.546Z,2180.00
2018-05-31T16:50:40.439Z,2088.00
2018-05-31T16:52:33.267Z,1908.00
2018-05-31T16:53:33.188Z,1840.00
2018-05-31T16:55:27.261Z,1772.00
2018-05-31T16:56:27.162Z,1776.00
2018-05-31T16:58:20.059Z,1744.00
2018-05-31T16:59:19.937Z,1704.00
2018-05-31T17:01:12.762Z,1700.00
2018-05-31T17:02:12.672Z,1716.00
2018-05-31T17:04:05.522Z,1772.00
2018-05-31T17:05:05.425Z,1816.00
2018-05-31T17:06:58.247Z,1868.00
2018-05-31T17:07:58.163Z,1940.00
2018-05-31T17:09:51.118Z,2220.00
2018-05-31T17:10:50.913Z,2344.00
2018-05-31T17:12:43.762Z,2404.00
2018-05-31T17:13:43.655Z,2332.00
2018-05-31T17:15:36.702Z,2324.00
2018-05-31T17:16:36.580Z,2356.00
2018-05-31T17:18:29.267Z,2452.00
2018-05-31T17:19:29.181Z,2560.00
2018-05-31T17:21:22.009Z,2848.00
2018-05-31T17:22:21.920Z,3160.00
2018-05-31T17:24:14.823Z,4204.00
2018-05-31T17:25:14.661Z,4760.00
2018-05-31T17:27:07.509Z,5076.00
2018-05-31T17:28:07.412Z,5200.00
2018-05-31T17:30:00.269Z,4992.00
2018-05-31T17:31:00.163Z,5188.00
2018-05-31T17:32:52.994Z,4932.00
2018-05-31T17:33:52.902Z,4948.00
2018-05-31T17:35:46.285Z,5528.00
2018-05-31T17:36:46.183Z,5852.00
2018-05-31T17:38:39.023Z,5756.00
2018-05-31T17:39:38.941Z,5572.00
2018-05-31T17:41:31.768Z,5552.00
2018-05-31T17:42:31.668Z,5072.00
2018-05-31T17:44:24.493Z,4220.00
2018-05-31T17:45:24.425Z,3944.00
2018-05-31T17:47:17.291Z,3596.00